sensor_id;sensor_type;location;lat;lon;timestamp;temperature;humidity
12578;DHT22;6354;51.026;8.968;2023-02-01T00:00:40;3.60;99.90
12578;DHT22;6354;51.026;8.968;2023-02-01T00:03:08;3.60;99.90
12578;DHT22;6354;51.026;8.968;2023-02-01T00:05:36;3.60;99.90
12578;DHT22;6354;51.026;8.968;2023-02-01T00:08:05;3.70;99.90
12578;DHT22;6354;51.026;8.968;2023-02-01T00:10:33;3.60;99.90
12578;DHT22;6354;51.026;8.968;2023-02-01T00:13:01;3.60;99.90
12578;DHT22;6354;51.026;8.968;2023-02-01T00:15:29;3.60;99.90
12578;DHT22;6354;51.026;8.968;2023-02-01T00:17:57;3.60;99.90
12578;DHT22;6354;51.026;8.968;2023-02-01T00:20:25;3.70;99.90
12578;DHT22;6354;51.026;8.968;2023-02-01T00:22:53;3.70;99.90
12578;DHT22;6354;51.026;8.968;2023-02-01T00:25:23;3.70;99.90
12578;DHT22;6354;51.026;8.968;2023-02-01T00:27:51;3.80;99.90
12578;DHT22;6354;51.026;8.968;2023-02-01T00:30:19;3.80;99.90
12578;DHT22;6354;51.026;8.968;2023-02-01T00:32:48;3.90;99.90
12578;DHT22;6354;51.026;8.968;2023-02-01T00:35:16;3.90;99.90
12578;DHT22;6354;51.026;8.968;2023-02-01T00:37:44;3.90;99.90
12578;DHT22;6354;51.026;8.968;2023-02-01T00:40:12;3.90;99.90
12578;DHT22;6354;51.026;8.968;2023-02-01T00:42:42;4.00;99.90
12578;DHT22;6354;51.026;8.968;2023-02-01T00:45:10;4.00;99.90
12578;DHT22;6354;51.026;8.968;2023-02-01T00:47:38;4.10;99.90
12578;DHT22;6354;51.026;8.968;2023-02-01T00:50:07;4.10;99.90
12578;DHT22;6354;51.026;8.968;2023-02-01T00:52:35;4.10;99.90
12578;DHT22;6354;51.026;8.968;2023-02-01T00:55:03;4.10;99.90
12578;DHT22;6354;51.026;8.968;2023-02-01T00:57:31;4.20;99.90
12578;DHT22;6354;51.026;8.968;2023-02-01T01:00:01;4.20;99.90
12578;DHT22;6354;51.026;8.968;2023-02-01T01:02:29;4.20;99.90
12578;DHT22;6354;51.026;8.968;2023-02-01T01:04:57;4.20;99.90
12578;DHT22;6354;51.026;8.968;2023-02-01T01:07:25;4.20;99.90
12578;DHT22;6354;51.026;8.968;2023-02-01T01:09:53;4.30;99.90
12578;DHT22;6354;51.026;8.968;2023-02-01T01:12:21;4.30;99.90
12578;DHT22;6354;51.026;8.968;2023-02-01T01:14:49;4.30;99.90
12578;DHT22;6354;51.026;8.968;2023-02-01T01:17:18;4.40;99.90
12578;DHT22;6354;51.026;8.968;2023-02-01T01:19:46;4.40;99.90
12578;DHT22;6354;51.026;8.968;2023-02-01T01:22:14;4.40;99.90
12578;DHT22;6354;51.026;8.968;2023-02-01T01:24:42;4.40;99.90
12578;DHT22;6354;51.026;8.968;2023-02-01T01:27:11;4.40;99.90
12578;DHT22;6354;51.026;8.968;2023-02-01T01:29:39;4.40;99.90
12578;DHT22;6354;51.026;8.968;2023-02-01T01:32:07;4.40;99.90
12578;DHT22;6354;51.026;8.968;2023-02-01T01:34:36;4.40;99.90
12578;DHT22;6354;51.026;8.968;2023-02-01T01:37:04;4.40;99.90
12578;DHT22;6354;51.026;8.968;2023-02-01T01:39:32;4.40;99.90
12578;DHT22;6354;51.026;8.968;2023-02-01T01:42:00;4.40;99.90
12578;DHT22;6354;51.026;8.968;2023-02-01T01:44:57;4.40;99.90
12578;DHT22;6354;51.026;8.968;2023-02-01T01:47:27;4.40;99.90
12578;DHT22;6354;51.026;8.968;2023-02-01T01:49:58;4.40;99.90
12578;DHT22;6354;51.026;8.968;2023-02-01T01:52:27;4.40;99.90
12578;DHT22;6354;51.026;8.968;2023-02-01T01:54:55;4.40;99.90
12578;DHT22;6354;51.026;8.968;2023-02-01T01:57:26;4.40;99.90
12578;DHT22;6354;51.026;8.968;2023-02-01T02:00:00;4.40;99.90
12578;DHT22;6354;51.026;8.968;2023-02-01T02:02:30;4.50;99.90
12578;DHT22;6354;51.026;8.968;2023-02-01T02:05:00;4.40;99.90
12578;DHT22;6354;51.026;8.968;2023-02-01T02:07:30;4.50;99.90
12578;DHT22;6354;51.026;8.968;2023-02-01T02:10:00;4.50;99.90
12578;DHT22;6354;51.026;8.968;2023-02-01T02:12:32;4.50;99.90
12578;DHT22;6354;51.026;8.968;2023-02-01T02:15:01;4.50;99.90
12578;DHT22;6354;51.026;8.968;2023-02-01T02:17:35;4.60;99.90
12578;DHT22;6354;51.026;8.968;2023-02-01T02:26:34;4.80;99.90
12578;DHT22;6354;51.026;8.968;2023-02-01T02:32:40;4.80;99.90
12578;DHT22;6354;51.026;8.968;2023-02-01T02:35:26;4.80;99.90
12578;DHT22;6354;51.026;8.968;2023-02-01T02:38:05;4.80;99.90
12578;DHT22;6354;51.026;8.968;2023-02-01T02:40:45;4.80;99.90
12578;DHT22;6354;51.026;8.968;2023-02-01T02:43:20;4.80;99.90
12578;DHT22;6354;51.026;8.968;2023-02-01T02:46:11;4.80;99.90
12578;DHT22;6354;51.026;8.968;2023-02-01T02:49:02;4.80;99.90
12578;DHT22;6354;51.026;8.968;2023-02-01T02:51:38;4.80;99.90
12578;DHT22;6354;51.026;8.968;2023-02-01T02:54:29;4.80;99.90
12578;DHT22;6354;51.026;8.968;2023-02-01T02:57:19;4.80;99.90
12578;DHT22;6354;51.026;8.968;2023-02-01T03:00:08;4.90;99.90
12578;DHT22;6354;51.026;8.968;2023-02-01T03:02:55;4.90;99.90
12578;DHT22;6354;51.026;8.968;2023-02-01T03:05:43;4.90;99.90
12578;DHT22;6354;51.026;8.968;2023-02-01T03:08:14;4.90;99.90
12578;DHT22;6354;51.026;8.968;2023-02-01T03:10:48;4.90;99.90
12578;DHT22;6354;51.026;8.968;2023-02-01T03:13:26;4.90;99.90
12578;DHT22;6354;51.026;8.968;2023-02-01T03:16:00;4.90;99.90
12578;DHT22;6354;51.026;8.968;2023-02-01T03:18:34;4.90;99.90
12578;DHT22;6354;51.026;8.968;2023-02-01T03:21:08;5.00;99.90
12578;DHT22;6354;51.026;8.968;2023-02-01T03:23:38;5.00;99.90
12578;DHT22;6354;51.026;8.968;2023-02-01T03:26:10;4.90;99.90
12578;DHT22;6354;51.026;8.968;2023-02-01T03:28:44;4.90;99.90
12578;DHT22;6354;51.026;8.968;2023-02-01T03:31:16;4.90;99.90
12578;DHT22;6354;51.026;8.968;2023-02-01T03:33:44;4.90;99.90
12578;DHT22;6354;51.026;8.968;2023-02-01T03:36:17;4.90;99.90
12578;DHT22;6354;51.026;8.968;2023-02-01T03:38:57;4.90;99.90
12578;DHT22;6354;51.026;8.968;2023-02-01T03:41:30;4.90;99.90
12578;DHT22;6354;51.026;8.968;2023-02-01T03:44:08;4.90;99.90
12578;DHT22;6354;51.026;8.968;2023-02-01T03:46:40;4.90;99.90
12578;DHT22;6354;51.026;8.968;2023-02-01T03:49:13;4.90;99.90
12578;DHT22;6354;51.026;8.968;2023-02-01T03:51:44;4.90;99.90
12578;DHT22;6354;51.026;8.968;2023-02-01T03:54:15;4.90;99.90
12578;DHT22;6354;51.026;8.968;2023-02-01T03:56:47;4.80;99.90
12578;DHT22;6354;51.026;8.968;2023-02-01T03:59:15;4.90;99.90
12578;DHT22;6354;51.026;8.968;2023-02-01T04:01:43;4.80;99.90
12578;DHT22;6354;51.026;8.968;2023-02-01T04:04:11;4.90;99.90
12578;DHT22;6354;51.026;8.968;2023-02-01T04:06:46;4.80;99.90
12578;DHT22;6354;51.026;8.968;2023-02-01T04:09:16;4.80;99.90
12578;DHT22;6354;51.026;8.968;2023-02-01T04:11:44;4.80;99.90
12578;DHT22;6354;51.026;8.968;2023-02-01T04:14:13;4.80;99.90
12578;DHT22;6354;51.026;8.968;2023-02-01T04:16:41;4.80;99.90
12578;DHT22;6354;51.026;8.968;2023-02-01T04:19:09;4.80;99.90
12578;DHT22;6354;51.026;8.968;2023-02-01T04:21:37;4.70;99.90
12578;DHT22;6354;51.026;8.968;2023-02-01T04:24:06;4.70;99.90
12578;DHT22;6354;51.026;8.968;2023-02-01T04:26:36;4.80;99.90
12578;DHT22;6354;51.026;8.968;2023-02-01T04:29:04;4.70;99.90
12578;DHT22;6354;51.026;8.968;2023-02-01T04:31:32;4.70;99.90
12578;DHT22;6354;51.026;8.968;2023-02-01T04:34:02;4.70;99.90
12578;DHT22;6354;51.026;8.968;2023-02-01T04:36:30;4.70;99.90
12578;DHT22;6354;51.026;8.968;2023-02-01T04:38:58;4.70;99.90
12578;DHT22;6354;51.026;8.968;2023-02-01T04:41:26;4.70;99.90
12578;DHT22;6354;51.026;8.968;2023-02-01T04:43:57;4.80;99.90
12578;DHT22;6354;51.026;8.968;2023-02-01T04:46:25;4.80;99.90
12578;DHT22;6354;51.026;8.968;2023-02-01T04:48:53;4.70;99.90
12578;DHT22;6354;51.026;8.968;2023-02-01T04:51:21;4.60;99.90
12578;DHT22;6354;51.026;8.968;2023-02-01T04:53:49;4.60;99.90
12578;DHT22;6354;51.026;8.968;2023-02-01T04:56:17;4.60;99.90
12578;DHT22;6354;51.026;8.968;2023-02-01T04:58:45;4.60;99.90
12578;DHT22;6354;51.026;8.968;2023-02-01T05:01:15;4.50;99.90
12578;DHT22;6354;51.026;8.968;2023-02-01T05:03:43;4.40;99.90
12578;DHT22;6354;51.026;8.968;2023-02-01T05:06:11;4.50;99.90
12578;DHT22;6354;51.026;8.968;2023-02-01T05:08:39;4.50;99.90
12578;DHT22;6354;51.026;8.968;2023-02-01T05:11:07;4.50;99.90
12578;DHT22;6354;51.026;8.968;2023-02-01T05:13:55;4.50;99.90
12578;DHT22;6354;51.026;8.968;2023-02-01T05:16:23;4.50;99.90
12578;DHT22;6354;51.026;8.968;2023-02-01T05:18:51;4.50;99.90
12578;DHT22;6354;51.026;8.968;2023-02-01T05:21:20;4.50;99.90
12578;DHT22;6354;51.026;8.968;2023-02-01T05:23:48;4.50;99.90
12578;DHT22;6354;51.026;8.968;2023-02-01T05:26:34;4.60;99.90
12578;DHT22;6354;51.026;8.968;2023-02-01T05:29:03;4.60;99.90
12578;DHT22;6354;51.026;8.968;2023-02-01T05:31:32;4.60;99.90
12578;DHT22;6354;51.026;8.968;2023-02-01T05:34:01;4.60;99.90
12578;DHT22;6354;51.026;8.968;2023-02-01T05:36:29;4.60;99.90
12578;DHT22;6354;51.026;8.968;2023-02-01T05:38:57;4.50;99.90
12578;DHT22;6354;51.026;8.968;2023-02-01T05:41:25;4.60;99.90
12578;DHT22;6354;51.026;8.968;2023-02-01T05:43:53;4.50;99.90
12578;DHT22;6354;51.026;8.968;2023-02-01T05:46:21;4.50;99.90
12578;DHT22;6354;51.026;8.968;2023-02-01T05:48:51;4.50;99.90
12578;DHT22;6354;51.026;8.968;2023-02-01T05:51:19;4.50;99.90
12578;DHT22;6354;51.026;8.968;2023-02-01T05:53:47;4.60;99.90
12578;DHT22;6354;51.026;8.968;2023-02-01T05:56:15;4.60;99.90
12578;DHT22;6354;51.026;8.968;2023-02-01T05:58:43;4.60;99.90
12578;DHT22;6354;51.026;8.968;2023-02-01T06:01:11;4.50;99.90
12578;DHT22;6354;51.026;8.968;2023-02-01T06:03:39;4.60;99.90
12578;DHT22;6354;51.026;8.968;2023-02-01T06:06:08;4.60;99.90
12578;DHT22;6354;51.026;8.968;2023-02-01T06:08:36;4.70;99.90
12578;DHT22;6354;51.026;8.968;2023-02-01T06:11:07;4.70;99.90
12578;DHT22;6354;51.026;8.968;2023-02-01T06:13:39;4.70;99.90
12578;DHT22;6354;51.026;8.968;2023-02-01T06:16:07;4.70;99.90
12578;DHT22;6354;51.026;8.968;2023-02-01T06:18:35;4.70;99.90
12578;DHT22;6354;51.026;8.968;2023-02-01T06:21:04;4.80;99.90
12578;DHT22;6354;51.026;8.968;2023-02-01T06:23:34;4.80;99.90
12578;DHT22;6354;51.026;8.968;2023-02-01T06:26:04;4.80;99.90
12578;DHT22;6354;51.026;8.968;2023-02-01T06:28:32;4.70;99.90
12578;DHT22;6354;51.026;8.968;2023-02-01T06:31:03;4.80;99.90
12578;DHT22;6354;51.026;8.968;2023-02-01T06:33:33;4.80;99.90
12578;DHT22;6354;51.026;8.968;2023-02-01T06:36:04;4.80;99.90
12578;DHT22;6354;51.026;8.968;2023-02-01T06:38:35;4.80;99.90
12578;DHT22;6354;51.026;8.968;2023-02-01T06:41:04;4.90;99.90
12578;DHT22;6354;51.026;8.968;2023-02-01T06:43:32;5.00;99.90
12578;DHT22;6354;51.026;8.968;2023-02-01T06:46:01;4.90;99.90
12578;DHT22;6354;51.026;8.968;2023-02-01T06:48:29;4.90;99.90
12578;DHT22;6354;51.026;8.968;2023-02-01T06:50:57;4.90;99.90
12578;DHT22;6354;51.026;8.968;2023-02-01T06:53:26;4.90;99.90
12578;DHT22;6354;51.026;8.968;2023-02-01T06:55:57;4.90;99.90
12578;DHT22;6354;51.026;8.968;2023-02-01T06:58:28;5.00;99.90
12578;DHT22;6354;51.026;8.968;2023-02-01T07:00:57;5.00;99.90
12578;DHT22;6354;51.026;8.968;2023-02-01T07:03:25;5.00;99.90
12578;DHT22;6354;51.026;8.968;2023-02-01T07:05:56;5.00;99.90
12578;DHT22;6354;51.026;8.968;2023-02-01T07:08:27;5.00;99.90
12578;DHT22;6354;51.026;8.968;2023-02-01T07:10:56;5.00;99.90
12578;DHT22;6354;51.026;8.968;2023-02-01T07:13:24;5.00;99.90
12578;DHT22;6354;51.026;8.968;2023-02-01T07:15:52;5.10;99.90
12578;DHT22;6354;51.026;8.968;2023-02-01T07:18:21;5.10;99.90
12578;DHT22;6354;51.026;8.968;2023-02-01T07:20:50;5.10;99.90
12578;DHT22;6354;51.026;8.968;2023-02-01T07:23:18;5.10;99.90
12578;DHT22;6354;51.026;8.968;2023-02-01T07:25:47;5.10;99.90
12578;DHT22;6354;51.026;8.968;2023-02-01T07:28:16;5.20;99.90
12578;DHT22;6354;51.026;8.968;2023-02-01T07:30:44;5.20;99.90
12578;DHT22;6354;51.026;8.968;2023-02-01T07:33:21;5.20;99.90
12578;DHT22;6354;51.026;8.968;2023-02-01T07:35:53;5.20;99.90
12578;DHT22;6354;51.026;8.968;2023-02-01T07:38:21;5.20;99.90
12578;DHT22;6354;51.026;8.968;2023-02-01T07:40:50;5.20;99.90
12578;DHT22;6354;51.026;8.968;2023-02-01T07:43:19;5.20;99.90
12578;DHT22;6354;51.026;8.968;2023-02-01T07:45:50;5.20;99.90
12578;DHT22;6354;51.026;8.968;2023-02-01T07:48:20;5.20;99.90
12578;DHT22;6354;51.026;8.968;2023-02-01T07:50:48;5.20;99.90
12578;DHT22;6354;51.026;8.968;2023-02-01T07:53:16;5.10;99.90
12578;DHT22;6354;51.026;8.968;2023-02-01T07:55:44;5.10;99.90
12578;DHT22;6354;51.026;8.968;2023-02-01T07:58:12;5.10;99.90
12578;DHT22;6354;51.026;8.968;2023-02-01T08:00:42;5.10;99.90
12578;DHT22;6354;51.026;8.968;2023-02-01T08:03:27;5.10;99.90
12578;DHT22;6354;51.026;8.968;2023-02-01T08:05:55;5.10;99.90
12578;DHT22;6354;51.026;8.968;2023-02-01T08:08:23;5.10;99.90
12578;DHT22;6354;51.026;8.968;2023-02-01T08:10:56;5.20;99.90
12578;DHT22;6354;51.026;8.968;2023-02-01T08:13:24;5.10;99.90
12578;DHT22;6354;51.026;8.968;2023-02-01T08:15:57;5.10;99.90
12578;DHT22;6354;51.026;8.968;2023-02-01T08:18:25;5.10;99.90
12578;DHT22;6354;51.026;8.968;2023-02-01T08:20:54;5.10;99.90
12578;DHT22;6354;51.026;8.968;2023-02-01T08:23:22;5.20;99.90
12578;DHT22;6354;51.026;8.968;2023-02-01T08:25:50;5.10;99.90
12578;DHT22;6354;51.026;8.968;2023-02-01T08:28:21;5.30;99.90
12578;DHT22;6354;51.026;8.968;2023-02-01T08:30:49;5.20;99.90
12578;DHT22;6354;51.026;8.968;2023-02-01T08:33:18;5.30;99.90
12578;DHT22;6354;51.026;8.968;2023-02-01T08:35:46;5.20;99.90
12578;DHT22;6354;51.026;8.968;2023-02-01T08:38:15;5.20;99.90
12578;DHT22;6354;51.026;8.968;2023-02-01T08:40:43;5.20;99.90
12578;DHT22;6354;51.026;8.968;2023-02-01T08:43:12;5.30;99.90
12578;DHT22;6354;51.026;8.968;2023-02-01T08:45:41;5.30;99.90
12578;DHT22;6354;51.026;8.968;2023-02-01T08:48:09;5.30;99.90
12578;DHT22;6354;51.026;8.968;2023-02-01T08:50:38;5.30;99.90
12578;DHT22;6354;51.026;8.968;2023-02-01T08:53:06;5.30;99.90
12578;DHT22;6354;51.026;8.968;2023-02-01T08:55:34;5.30;99.90
12578;DHT22;6354;51.026;8.968;2023-02-01T08:58:02;5.30;99.90
12578;DHT22;6354;51.026;8.968;2023-02-01T09:00:30;5.30;99.90
12578;DHT22;6354;51.026;8.968;2023-02-01T09:02:58;5.30;99.90
12578;DHT22;6354;51.026;8.968;2023-02-01T09:05:26;5.30;99.90
12578;DHT22;6354;51.026;8.968;2023-02-01T09:08:14;5.30;99.90
12578;DHT22;6354;51.026;8.968;2023-02-01T09:10:43;5.40;99.90
12578;DHT22;6354;51.026;8.968;2023-02-01T09:13:11;5.40;99.90
12578;DHT22;6354;51.026;8.968;2023-02-01T09:15:39;5.30;99.90
12578;DHT22;6354;51.026;8.968;2023-02-01T09:18:07;5.30;99.90
12578;DHT22;6354;51.026;8.968;2023-02-01T09:20:36;5.30;99.90
12578;DHT22;6354;51.026;8.968;2023-02-01T09:23:04;5.20;99.90
12578;DHT22;6354;51.026;8.968;2023-02-01T09:25:37;5.30;99.90
12578;DHT22;6354;51.026;8.968;2023-02-01T09:28:05;5.30;99.90
12578;DHT22;6354;51.026;8.968;2023-02-01T09:30:36;5.30;99.90
12578;DHT22;6354;51.026;8.968;2023-02-01T09:33:05;5.30;99.90
12578;DHT22;6354;51.026;8.968;2023-02-01T09:35:33;5.40;99.90
12578;DHT22;6354;51.026;8.968;2023-02-01T09:38:01;5.40;99.90
12578;DHT22;6354;51.026;8.968;2023-02-01T09:40:29;5.50;99.90
12578;DHT22;6354;51.026;8.968;2023-02-01T09:43:09;5.40;99.90
12578;DHT22;6354;51.026;8.968;2023-02-01T09:45:44;5.40;99.90
12578;DHT22;6354;51.026;8.968;2023-02-01T09:48:17;5.40;99.90
12578;DHT22;6354;51.026;8.968;2023-02-01T09:50:49;5.40;99.90
12578;DHT22;6354;51.026;8.968;2023-02-01T09:53:21;5.40;99.90
12578;DHT22;6354;51.026;8.968;2023-02-01T09:55:54;5.40;99.90
12578;DHT22;6354;51.026;8.968;2023-02-01T09:58:29;5.40;99.90
12578;DHT22;6354;51.026;8.968;2023-02-01T10:01:02;5.40;99.90
12578;DHT22;6354;51.026;8.968;2023-02-01T10:03:33;5.40;99.90
12578;DHT22;6354;51.026;8.968;2023-02-01T10:06:19;5.40;99.90
12578;DHT22;6354;51.026;8.968;2023-02-01T10:09:07;5.40;99.90
12578;DHT22;6354;51.026;8.968;2023-02-01T10:11:47;5.40;99.90
12578;DHT22;6354;51.026;8.968;2023-02-01T10:14:32;5.40;99.90
12578;DHT22;6354;51.026;8.968;2023-02-01T10:17:09;5.50;99.90
12578;DHT22;6354;51.026;8.968;2023-02-01T10:19:44;5.50;99.90
12578;DHT22;6354;51.026;8.968;2023-02-01T10:22:25;5.50;99.90
12578;DHT22;6354;51.026;8.968;2023-02-01T10:25:22;5.60;99.90
12578;DHT22;6354;51.026;8.968;2023-02-01T10:27:51;5.60;99.90
12578;DHT22;6354;51.026;8.968;2023-02-01T10:30:22;5.60;99.90
12578;DHT22;6354;51.026;8.968;2023-02-01T10:32:56;5.60;99.90
12578;DHT22;6354;51.026;8.968;2023-02-01T10:35:28;5.70;99.90
12578;DHT22;6354;51.026;8.968;2023-02-01T10:38:00;5.70;99.90
12578;DHT22;6354;51.026;8.968;2023-02-01T10:40:29;5.80;99.90
12578;DHT22;6354;51.026;8.968;2023-02-01T10:42:59;5.80;99.90
12578;DHT22;6354;51.026;8.968;2023-02-01T10:45:32;5.80;99.90
12578;DHT22;6354;51.026;8.968;2023-02-01T10:48:02;5.80;99.90
12578;DHT22;6354;51.026;8.968;2023-02-01T10:50:35;5.90;99.90
12578;DHT22;6354;51.026;8.968;2023-02-01T10:53:11;5.90;99.90
12578;DHT22;6354;51.026;8.968;2023-02-01T10:55:41;5.90;99.90
12578;DHT22;6354;51.026;8.968;2023-02-01T10:58:17;6.00;99.90
12578;DHT22;6354;51.026;8.968;2023-02-01T11:00:51;6.00;99.90
12578;DHT22;6354;51.026;8.968;2023-02-01T11:03:30;5.90;99.90
12578;DHT22;6354;51.026;8.968;2023-02-01T11:05:59;5.90;99.90
12578;DHT22;6354;51.026;8.968;2023-02-01T11:08:28;5.90;99.90
12578;DHT22;6354;51.026;8.968;2023-02-01T11:10:59;5.90;99.90
12578;DHT22;6354;51.026;8.968;2023-02-01T11:13:30;5.90;99.90
12578;DHT22;6354;51.026;8.968;2023-02-01T11:16:04;5.80;99.90
12578;DHT22;6354;51.026;8.968;2023-02-01T11:18:37;6.00;99.90
12578;DHT22;6354;51.026;8.968;2023-02-01T11:21:07;5.90;99.90
12578;DHT22;6354;51.026;8.968;2023-02-01T11:23:41;5.90;99.90
12578;DHT22;6354;51.026;8.968;2023-02-01T11:26:13;5.90;99.90
12578;DHT22;6354;51.026;8.968;2023-02-01T11:28:51;5.80;99.90
12578;DHT22;6354;51.026;8.968;2023-02-01T11:31:22;5.90;99.90
12578;DHT22;6354;51.026;8.968;2023-02-01T11:33:53;5.90;99.90
12578;DHT22;6354;51.026;8.968;2023-02-01T11:36:26;5.90;99.90
12578;DHT22;6354;51.026;8.968;2023-02-01T11:39:09;5.90;99.90
12578;DHT22;6354;51.026;8.968;2023-02-01T11:41:42;5.90;99.90
12578;DHT22;6354;51.026;8.968;2023-02-01T11:44:20;6.00;99.90
12578;DHT22;6354;51.026;8.968;2023-02-01T11:46:50;5.90;99.90
12578;DHT22;6354;51.026;8.968;2023-02-01T11:49:21;6.00;99.90
12578;DHT22;6354;51.026;8.968;2023-02-01T11:52:00;6.10;99.90
12578;DHT22;6354;51.026;8.968;2023-02-01T11:54:41;6.10;99.90
12578;DHT22;6354;51.026;8.968;2023-02-01T11:57:22;6.00;99.90
12578;DHT22;6354;51.026;8.968;2023-02-01T12:00:06;6.10;99.90
12578;DHT22;6354;51.026;8.968;2023-02-01T12:05:53;6.10;99.90
12578;DHT22;6354;51.026;8.968;2023-02-01T12:08:37;5.90;99.90
12578;DHT22;6354;51.026;8.968;2023-02-01T12:11:30;6.00;99.90
12578;DHT22;6354;51.026;8.968;2023-02-01T12:14:09;5.90;99.90
12578;DHT22;6354;51.026;8.968;2023-02-01T12:16:54;5.80;99.90
12578;DHT22;6354;51.026;8.968;2023-02-01T12:19:51;5.80;99.90
12578;DHT22;6354;51.026;8.968;2023-02-01T12:22:32;5.90;99.90
12578;DHT22;6354;51.026;8.968;2023-02-01T12:25:21;6.00;99.90
12578;DHT22;6354;51.026;8.968;2023-02-01T12:28:18;5.90;99.90
12578;DHT22;6354;51.026;8.968;2023-02-01T12:31:06;5.90;99.90
12578;DHT22;6354;51.026;8.968;2023-02-01T12:33:50;6.00;99.90
12578;DHT22;6354;51.026;8.968;2023-02-01T12:36:28;6.10;99.90
12578;DHT22;6354;51.026;8.968;2023-02-01T12:39:07;6.30;99.90
12578;DHT22;6354;51.026;8.968;2023-02-01T12:41:48;6.40;99.90
12578;DHT22;6354;51.026;8.968;2023-02-01T12:44:42;6.40;99.90
12578;DHT22;6354;51.026;8.968;2023-02-01T12:47:16;6.50;99.90
12578;DHT22;6354;51.026;8.968;2023-02-01T12:49:52;6.60;99.90
12578;DHT22;6354;51.026;8.968;2023-02-01T12:52:27;6.60;99.90
12578;DHT22;6354;51.026;8.968;2023-02-01T12:55:06;6.70;99.90
12578;DHT22;6354;51.026;8.968;2023-02-01T12:57:37;6.80;99.90
12578;DHT22;6354;51.026;8.968;2023-02-01T13:00:16;6.80;99.90
12578;DHT22;6354;51.026;8.968;2023-02-01T13:02:55;6.60;99.90
12578;DHT22;6354;51.026;8.968;2023-02-01T13:05:28;6.60;99.90
12578;DHT22;6354;51.026;8.968;2023-02-01T13:08:02;6.70;99.90
12578;DHT22;6354;51.026;8.968;2023-02-01T13:10:33;6.70;99.90
12578;DHT22;6354;51.026;8.968;2023-02-01T13:13:10;6.70;99.90
12578;DHT22;6354;51.026;8.968;2023-02-01T13:15:42;6.90;99.90
12578;DHT22;6354;51.026;8.968;2023-02-01T13:18:16;6.90;99.90
12578;DHT22;6354;51.026;8.968;2023-02-01T13:20:50;6.80;99.90
12578;DHT22;6354;51.026;8.968;2023-02-01T13:23:26;6.60;99.90
12578;DHT22;6354;51.026;8.968;2023-02-01T13:25:56;6.50;99.90
12578;DHT22;6354;51.026;8.968;2023-02-01T13:28:26;6.40;99.90
12578;DHT22;6354;51.026;8.968;2023-02-01T13:31:16;6.50;99.90
12578;DHT22;6354;51.026;8.968;2023-02-01T13:34:01;6.30;99.90
12578;DHT22;6354;51.026;8.968;2023-02-01T13:39:54;6.10;99.90
12578;DHT22;6354;51.026;8.968;2023-02-01T13:42:29;6.10;99.90
12578;DHT22;6354;51.026;8.968;2023-02-01T13:45:00;6.00;99.90
12578;DHT22;6354;51.026;8.968;2023-02-01T13:47:31;6.10;99.90
12578;DHT22;6354;51.026;8.968;2023-02-01T13:50:03;6.00;99.90
12578;DHT22;6354;51.026;8.968;2023-02-01T13:52:40;6.00;99.90
12578;DHT22;6354;51.026;8.968;2023-02-01T13:55:33;6.10;99.90
12578;DHT22;6354;51.026;8.968;2023-02-01T13:58:13;5.90;99.90
12578;DHT22;6354;51.026;8.968;2023-02-01T14:00:42;5.90;99.90
12578;DHT22;6354;51.026;8.968;2023-02-01T14:03:16;5.90;99.90
12578;DHT22;6354;51.026;8.968;2023-02-01T14:06:00;5.90;99.90
12578;DHT22;6354;51.026;8.968;2023-02-01T14:08:46;5.80;99.90
12578;DHT22;6354;51.026;8.968;2023-02-01T14:11:37;5.90;99.90
12578;DHT22;6354;51.026;8.968;2023-02-01T14:14:38;5.90;99.90
12578;DHT22;6354;51.026;8.968;2023-02-01T14:23:15;6.10;99.90
12578;DHT22;6354;51.026;8.968;2023-02-01T14:25:45;6.00;99.90
12578;DHT22;6354;51.026;8.968;2023-02-01T14:28:24;6.00;99.90
12578;DHT22;6354;51.026;8.968;2023-02-01T14:30:54;6.00;99.90
12578;DHT22;6354;51.026;8.968;2023-02-01T14:33:25;6.00;99.90
12578;DHT22;6354;51.026;8.968;2023-02-01T14:36:03;6.10;99.90
12578;DHT22;6354;51.026;8.968;2023-02-01T14:38:33;6.00;99.90
12578;DHT22;6354;51.026;8.968;2023-02-01T14:44:33;5.90;99.90
12578;DHT22;6354;51.026;8.968;2023-02-01T14:47:08;5.90;99.90
12578;DHT22;6354;51.026;8.968;2023-02-01T14:49:39;5.90;99.90
12578;DHT22;6354;51.026;8.968;2023-02-01T14:52:14;5.80;99.90
12578;DHT22;6354;51.026;8.968;2023-02-01T14:54:47;5.80;99.90
12578;DHT22;6354;51.026;8.968;2023-02-01T14:57:18;5.80;99.90
12578;DHT22;6354;51.026;8.968;2023-02-01T14:59:49;5.80;99.90
12578;DHT22;6354;51.026;8.968;2023-02-01T15:02:24;5.80;99.90
12578;DHT22;6354;51.026;8.968;2023-02-01T15:04:55;5.70;99.90
12578;DHT22;6354;51.026;8.968;2023-02-01T15:07:24;5.80;99.90
12578;DHT22;6354;51.026;8.968;2023-02-01T15:09:56;5.70;99.90
12578;DHT22;6354;51.026;8.968;2023-02-01T15:12:27;5.70;99.90
12578;DHT22;6354;51.026;8.968;2023-02-01T15:15:12;5.60;99.90
12578;DHT22;6354;51.026;8.968;2023-02-01T15:17:41;5.60;99.90
12578;DHT22;6354;51.026;8.968;2023-02-01T15:20:14;5.50;99.90
12578;DHT22;6354;51.026;8.968;2023-02-01T15:22:53;5.50;99.90
12578;DHT22;6354;51.026;8.968;2023-02-01T15:25:24;5.50;99.90
12578;DHT22;6354;51.026;8.968;2023-02-01T15:27:52;5.50;99.90
12578;DHT22;6354;51.026;8.968;2023-02-01T15:30:26;5.50;99.90
12578;DHT22;6354;51.026;8.968;2023-02-01T15:33:05;5.50;99.90
12578;DHT22;6354;51.026;8.968;2023-02-01T15:35:39;5.50;99.90
12578;DHT22;6354;51.026;8.968;2023-02-01T15:38:19;5.50;99.90
12578;DHT22;6354;51.026;8.968;2023-02-01T15:40:54;5.50;99.90
12578;DHT22;6354;51.026;8.968;2023-02-01T15:43:24;5.50;99.90
12578;DHT22;6354;51.026;8.968;2023-02-01T15:45:56;5.40;99.90
12578;DHT22;6354;51.026;8.968;2023-02-01T15:48:26;5.40;99.90
12578;DHT22;6354;51.026;8.968;2023-02-01T15:50:54;5.30;99.90
12578;DHT22;6354;51.026;8.968;2023-02-01T15:53:24;5.40;99.90
12578;DHT22;6354;51.026;8.968;2023-02-01T15:56:00;5.40;99.90
12578;DHT22;6354;51.026;8.968;2023-02-01T15:58:29;5.50;99.90
12578;DHT22;6354;51.026;8.968;2023-02-01T16:01:01;5.40;99.90
12578;DHT22;6354;51.026;8.968;2023-02-01T16:03:36;5.40;99.90
12578;DHT22;6354;51.026;8.968;2023-02-01T16:06:06;5.40;99.90
12578;DHT22;6354;51.026;8.968;2023-02-01T16:08:34;5.30;99.90
12578;DHT22;6354;51.026;8.968;2023-02-01T16:11:25;5.30;99.90
12578;DHT22;6354;51.026;8.968;2023-02-01T16:13:54;5.30;99.90
12578;DHT22;6354;51.026;8.968;2023-02-01T16:16:24;5.30;99.90
12578;DHT22;6354;51.026;8.968;2023-02-01T16:18:52;5.30;99.90
12578;DHT22;6354;51.026;8.968;2023-02-01T16:21:20;5.30;99.90
12578;DHT22;6354;51.026;8.968;2023-02-01T16:23:49;5.20;99.90
12578;DHT22;6354;51.026;8.968;2023-02-01T16:26:18;5.20;99.90
12578;DHT22;6354;51.026;8.968;2023-02-01T16:28:47;5.10;99.90
12578;DHT22;6354;51.026;8.968;2023-02-01T16:31:18;5.10;99.90
12578;DHT22;6354;51.026;8.968;2023-02-01T16:33:51;5.10;99.90
12578;DHT22;6354;51.026;8.968;2023-02-01T16:36:20;5.10;99.90
12578;DHT22;6354;51.026;8.968;2023-02-01T16:38:48;5.30;99.90
12578;DHT22;6354;51.026;8.968;2023-02-01T16:41:18;5.20;99.90
12578;DHT22;6354;51.026;8.968;2023-02-01T16:43:49;5.20;99.90
12578;DHT22;6354;51.026;8.968;2023-02-01T16:46:19;5.20;99.90
12578;DHT22;6354;51.026;8.968;2023-02-01T16:48:53;5.10;99.90
12578;DHT22;6354;51.026;8.968;2023-02-01T16:51:22;5.10;99.90
12578;DHT22;6354;51.026;8.968;2023-02-01T16:53:51;5.00;99.90
12578;DHT22;6354;51.026;8.968;2023-02-01T16:56:22;4.90;99.90
12578;DHT22;6354;51.026;8.968;2023-02-01T16:58:50;4.80;99.90
12578;DHT22;6354;51.026;8.968;2023-02-01T17:01:21;4.80;99.90